Time;durP1;ratioP1;P1;durP2;ratioP2;P2;SDS_P1;SDS_P2;PMS_P1;PMS_P2;Temp;Humidity;BMP_temperature;BMP_pressure;BME280_temperature;BME280_humidity;BME280_pressure;Samples;Min_cycle;Max_cycle;Signal;HPM_P1;HPM_P2
2021/10/28 00:12:15;;;;;;;;;;;9.40;65.00;;;;;;6278156;22;20239;-66
2021/10/28 00:14:43;;;;;;;;;;;9.40;65.20;;;;;;6276148;22;19911;-67
2021/10/28 00:17:12;;;;;;;;;;;9.40;65.30;;;;;;6278078;22;19946;-66
2021/10/28 00:19:39;;;;;;;;;;;9.40;65.30;;;;;;6276416;22;19900;-66
2021/10/28 00:22:06;;;;;;;;;;;9.30;65.10;;;;;;6278025;22;20315;-66
2021/10/28 00:24:32;;;;;;;;;;;9.30;65.10;;;;;;6277978;22;19899;-66
2021/10/28 00:26:57;;;;;;;;;;;9.30;65.00;;;;;;6277942;22;19905;-65
2021/10/28 00:29:26;;;;;;;;;;;9.30;65.00;;;;;;6277888;22;19906;-66
2021/10/28 00:31:52;;;;;;;;;;;9.30;65.00;;;;;;6277848;22;19905;-67
2021/10/28 00:34:18;;;;;;;;;;;9.30;65.00;;;;;;6277772;22;19903;-66
2021/10/28 00:36:47;;;;;;;;;;;9.20;64.90;;;;;;6277841;22;19899;-66
2021/10/28 00:39:13;;;;;;;;;;;9.20;64.90;;;;;;6277741;22;20334;-66
2021/10/28 00:41:39;;;;;;;;;;;9.20;64.90;;;;;;6277856;22;19899;-66
2021/10/28 00:44:06;;;;;;;;;;;9.20;65.00;;;;;;6277765;22;19906;-67
2021/10/28 00:46:33;;;;;;;;;;;9.10;64.90;;;;;;6277819;22;19899;-66
2021/10/28 00:49:00;;;;;;;;;;;9.10;64.90;;;;;;6277757;22;19934;-66
2021/10/28 00:51:27;;;;;;;;;;;9.10;64.90;;;;;;6277669;22;19900;-66
2021/10/28 00:53:54;;;;;;;;;;;9.10;64.90;;;;;;6277561;22;19907;-66
2021/10/28 00:56:20;;;;;;;;;;;9.10;65.00;;;;;;6277585;22;19982;-66
2021/10/28 00:58:46;;;;;;;;;;;9.10;65.00;;;;;;6277536;22;19899;-66
2021/10/28 01:01:12;;;;;;;;;;;9.00;65.00;;;;;;6277543;22;19980;-67
2021/10/28 01:03:39;;;;;;;;;;;9.00;65.00;;;;;;6277595;22;19899;-66
2021/10/28 01:06:05;;;;;;;;;;;9.00;65.10;;;;;;6276993;22;19900;-66
2021/10/28 01:08:33;;;;;;;;;;;9.00;65.10;;;;;;6277494;22;19978;-66
2021/10/28 01:10:59;;;;;;;;;;;9.00;65.10;;;;;;6277485;22;19899;-67
2021/10/28 01:13:25;;;;;;;;;;;9.00;65.10;;;;;;6277072;22;19985;-67
2021/10/28 01:15:55;;;;;;;;;;;9.00;65.20;;;;;;6277440;22;20215;-66
2021/10/28 01:18:21;;;;;;;;;;;9.00;65.10;;;;;;6275855;22;19899;-66
2021/10/28 01:20:50;;;;;;;;;;;8.90;65.10;;;;;;6275709;22;19899;-66
2021/10/28 01:23:16;;;;;;;;;;;8.90;65.10;;;;;;6277258;22;19906;-66
2021/10/28 01:25:49;;;;;;;;;;;8.90;65.20;;;;;;6277379;22;19910;-66
2021/10/28 01:28:15;;;;;;;;;;;8.90;65.30;;;;;;6277423;22;19953;-66
2021/10/28 01:30:51;;;;;;;;;;;8.90;65.30;;;;;;6277386;22;19899;-67
2021/10/28 01:33:17;;;;;;;;;;;8.90;65.30;;;;;;6277280;22;19903;-66
2021/10/28 01:35:43;;;;;;;;;;;8.90;65.40;;;;;;6277195;22;19993;-67
2021/10/28 01:38:10;;;;;;;;;;;8.90;65.50;;;;;;6277220;22;19954;-66
2021/10/28 01:40:36;;;;;;;;;;;8.90;65.60;;;;;;6277230;22;20234;-66
2021/10/28 01:43:02;;;;;;;;;;;8.90;65.60;;;;;;6277285;22;20336;-66
2021/10/28 01:45:28;;;;;;;;;;;8.90;65.50;;;;;;6277152;22;19972;-66
2021/10/28 01:47:53;;;;;;;;;;;8.80;65.50;;;;;;6277103;22;19973;-65
2021/10/28 01:50:19;;;;;;;;;;;8.80;65.50;;;;;;6277029;22;19899;-66
2021/10/28 01:52:45;;;;;;;;;;;8.80;65.50;;;;;;6277006;22;19969;-66
2021/10/28 01:55:10;;;;;;;;;;;8.80;65.50;;;;;;6276939;22;19956;-66
2021/10/28 01:57:37;;;;;;;;;;;8.80;65.60;;;;;;6277099;22;19899;-66
2021/10/28 02:00:03;;;;;;;;;;;8.80;65.50;;;;;;6276881;22;19978;-66
2021/10/28 02:02:29;;;;;;;;;;;8.80;65.50;;;;;;6276823;22;19899;-66
2021/10/28 02:04:54;;;;;;;;;;;8.80;65.50;;;;;;6276748;22;19918;-66
2021/10/28 02:07:20;;;;;;;;;;;8.70;65.60;;;;;;6276701;22;19906;-66
2021/10/28 02:09:45;;;;;;;;;;;8.70;65.60;;;;;;6275086;22;19899;-66
2021/10/28 02:12:11;;;;;;;;;;;8.70;65.70;;;;;;6276673;22;19903;-66
2021/10/28 02:14:37;;;;;;;;;;;8.70;65.70;;;;;;6276341;22;20311;-66
2021/10/28 02:17:02;;;;;;;;;;;8.70;65.70;;;;;;6274947;22;19903;-66
2021/10/28 02:19:28;;;;;;;;;;;8.70;65.70;;;;;;6276546;22;19905;-66
2021/10/28 02:21:54;;;;;;;;;;;8.60;65.70;;;;;;6276580;22;19899;-66
2021/10/28 02:24:19;;;;;;;;;;;8.60;65.70;;;;;;6276496;22;19932;-66
2021/10/28 02:26:45;;;;;;;;;;;8.60;65.80;;;;;;6276503;22;20342;-66
2021/10/28 02:29:11;;;;;;;;;;;8.60;65.80;;;;;;6276469;22;19974;-66
2021/10/28 02:31:36;;;;;;;;;;;8.60;65.80;;;;;;6276515;22;20311;-66
2021/10/28 02:34:02;;;;;;;;;;;8.60;65.70;;;;;;6276534;22;19989;-66
2021/10/28 02:36:28;;;;;;;;;;;8.60;65.70;;;;;;6276621;22;19900;-66
2021/10/28 02:38:53;;;;;;;;;;;8.60;65.70;;;;;;6276586;22;19945;-66
2021/10/28 02:41:19;;;;;;;;;;;8.60;66.60;;;;;;6276627;22;19934;-66
2021/10/28 02:43:45;;;;;;;;;;;8.50;65.80;;;;;;6276584;22;19899;-66
2021/10/28 02:46:11;;;;;;;;;;;8.50;65.80;;;;;;6276545;22;19899;-66
2021/10/28 02:48:37;;;;;;;;;;;8.50;65.70;;;;;;6276570;22;19899;-67
2021/10/28 02:51:02;;;;;;;;;;;8.50;65.70;;;;;;6276401;22;20326;-67
2021/10/28 02:53:28;;;;;;;;;;;8.50;65.80;;;;;;6274709;22;19930;-66
2021/10/28 02:55:54;;;;;;;;;;;8.50;65.90;;;;;;6276558;22;19907;-66
2021/10/28 02:58:20;;;;;;;;;;;8.40;65.90;;;;;;6276397;22;19899;-66
2021/10/28 03:00:47;;;;;;;;;;;8.40;66.00;;;;;;6276446;22;19907;-66
2021/10/28 03:03:13;;;;;;;;;;;8.40;66.10;;;;;;6276490;22;20167;-66
2021/10/28 03:05:39;;;;;;;;;;;8.40;66.10;;;;;;6276487;22;20311;-66
2021/10/28 03:08:04;;;;;;;;;;;8.40;66.00;;;;;;6276419;22;20271;-66
2021/10/28 03:10:30;;;;;;;;;;;8.40;66.10;;;;;;6274734;22;19965;-67
2021/10/28 03:12:56;;;;;;;;;;;8.40;66.10;;;;;;6274494;22;19993;-67
2021/10/28 03:15:23;;;;;;;;;;;8.40;66.10;;;;;;6274760;22;20234;-66
2021/10/28 03:26:01;;;;;;;;;;;8.30;66.20;;;;;;6276389;22;19929;-66
2021/10/28 03:28:27;;;;;;;;;;;8.30;66.20;;;;;;6276482;22;19899;-66
2021/10/28 03:30:52;;;;;;;;;;;8.20;66.10;;;;;;6278210;22;20318;-66
2021/10/28 03:33:23;;;;;;;;;;;8.30;66.10;;;;;;6277996;22;19900;-67
2021/10/28 03:35:49;;;;;;;;;;;8.20;66.10;;;;;;6277943;22;20334;-66
2021/10/28 03:54:33;;;;;;;;;;;8.10;66.20;;;;;;6288235;22;19903;-66
2021/10/28 04:18:53;;;;;;;;;;;8.00;66.80;;;;;;6277711;22;19905;-66
2021/10/28 04:21:39;;;;;;;;;;;7.90;67.10;;;;;;6277601;22;19903;-67
2021/10/28 04:29:33;;;;;;;;;;;8.00;67.90;;;;;;6288163;22;19929;-66
2021/10/28 04:31:59;;;;;;;;;;;8.00;67.90;;;;;;6277698;22;19899;-66
2021/10/28 04:34:25;;;;;;;;;;;8.00;67.90;;;;;;6277392;22;19911;-66
2021/10/28 04:36:51;;;;;;;;;;;8.10;67.90;;;;;;6277636;22;19903;-67
2021/10/28 04:39:17;;;;;;;;;;;8.10;67.80;;;;;;6277562;22;19906;-67
2021/10/28 04:41:43;;;;;;;;;;;8.10;67.90;;;;;;6275331;22;19930;-67
2021/10/28 04:44:11;;;;;;;;;;;8.20;67.80;;;;;;6277535;22;19906;-67
2021/10/28 04:46:37;;;;;;;;;;;8.20;68.50;;;;;;6277494;22;19906;-66
2021/10/28 04:49:03;;;;;;;;;;;8.20;67.70;;;;;;6275991;22;20278;-67
2021/10/28 04:51:29;;;;;;;;;;;8.20;67.60;;;;;;6277472;22;19906;-66
2021/10/28 04:53:55;;;;;;;;;;;8.20;67.50;;;;;;6277315;22;19907;-66
2021/10/28 04:56:21;;;;;;;;;;;8.20;67.60;;;;;;6277434;22;20247;-66
2021/10/28 04:58:46;;;;;;;;;;;8.20;67.60;;;;;;6275794;22;19903;-67
2021/10/28 05:01:12;;;;;;;;;;;8.20;67.60;;;;;;6277357;22;19929;-66
2021/10/28 05:03:38;;;;;;;;;;;8.20;67.50;;;;;;6277247;22;19899;-66
2021/10/28 05:06:03;;;;;;;;;;;8.20;67.40;;;;;;6275562;22;19899;-66
2021/10/28 05:08:29;;;;;;;;;;;8.20;67.20;;;;;;6277155;22;20367;-66
2021/10/28 05:10:54;;;;;;;;;;;8.20;67.00;;;;;;6277046;22;19905;-67
2021/10/28 05:13:20;;;;;;;;;;;8.10;66.90;;;;;;6276854;22;20315;-66
2021/10/28 05:15:50;;;;;;;;;;;8.10;66.80;;;;;;6276928;22;19910;-67
2021/10/28 05:18:17;;;;;;;;;;;8.10;66.80;;;;;;6277108;22;19899;-66
2021/10/28 05:20:44;;;;;;;;;;;8.00;66.70;;;;;;6277031;22;19910;-68
2021/10/28 05:23:10;;;;;;;;;;;8.00;66.70;;;;;;6276818;22;19899;-66
2021/10/28 05:25:36;;;;;;;;;;;8.00;66.70;;;;;;6276885;22;19900;-66
2021/10/28 05:28:01;;;;;;;;;;;7.90;67.40;;;;;;6277006;22;19906;-67
2021/10/28 05:30:28;;;;;;;;;;;7.90;66.60;;;;;;6277016;22;20273;-66
2021/10/28 05:32:55;;;;;;;;;;;7.90;66.60;;;;;;6276775;22;19899;-66
2021/10/28 05:35:20;;;;;;;;;;;7.80;66.60;;;;;;6276882;22;19985;-66
2021/10/28 05:37:46;;;;;;;;;;;7.90;66.80;;;;;;6277279;22;19942;-67
2021/10/28 05:40:12;;;;;;;;;;;7.80;66.70;;;;;;6276782;22;19904;-66
2021/10/28 05:42:42;;;;;;;;;;;7.80;66.70;;;;;;6276800;22;19899;-66
2021/10/28 05:45:09;;;;;;;;;;;7.80;66.70;;;;;;6276992;22;19899;-67
2021/10/28 05:47:35;;;;;;;;;;;7.70;66.80;;;;;;6276865;22;20307;-66
2021/10/28 05:50:01;;;;;;;;;;;7.70;66.80;;;;;;6276875;22;19953;-67
2021/10/28 05:52:27;;;;;;;;;;;7.70;66.90;;;;;;6276609;22;19903;-67
2021/10/28 05:54:53;;;;;;;;;;;7.70;66.90;;;;;;6276605;22;19990;-65
2021/10/28 05:57:18;;;;;;;;;;;7.70;67.00;;;;;;6276669;22;20314;-65
2021/10/28 05:59:44;;;;;;;;;;;7.70;67.00;;;;;;6276668;22;20365;-65
2021/10/28 06:02:10;;;;;;;;;;;7.70;67.00;;;;;;6276570;22;19906;-66
2021/10/28 06:04:35;;;;;;;;;;;7.70;67.10;;;;;;6276627;22;19910;-65
2021/10/28 06:07:01;;;;;;;;;;;7.70;67.20;;;;;;6276677;22;19899;-67
2021/10/28 06:09:27;;;;;;;;;;;7.70;67.30;;;;;;6276540;22;19899;-64
2021/10/28 06:11:54;;;;;;;;;;;7.70;67.30;;;;;;6274925;22;19903;-67
2021/10/28 06:14:22;;;;;;;;;;;7.70;67.30;;;;;;6276372;22;19994;-68
2021/10/28 06:16:52;;;;;;;;;;;7.70;67.40;;;;;;6276540;22;19953;-67
2021/10/28 06:19:18;;;;;;;;;;;7.70;67.40;;;;;;6276593;22;19985;-65
2021/10/28 06:21:45;;;;;;;;;;;7.80;67.50;;;;;;6275036;22;19899;-67
2021/10/28 06:24:10;;;;;;;;;;;7.80;67.40;;;;;;6275909;22;19981;-65
2021/10/28 06:26:36;;;;;;;;;;;7.80;67.50;;;;;;6276378;22;20283;-68
2021/10/28 06:29:01;;;;;;;;;;;7.80;67.50;;;;;;6274504;22;19903;-66
2021/10/28 06:31:27;;;;;;;;;;;7.80;67.50;;;;;;6275360;22;19907;-66
2021/10/28 06:34:00;;;;;;;;;;;7.80;67.60;;;;;;6275249;22;19959;-66
2021/10/28 06:36:26;;;;;;;;;;;7.90;67.70;;;;;;6273768;22;19899;-66
2021/10/28 06:38:52;;;;;;;;;;;7.90;67.80;;;;;;6275017;22;19949;-65
2021/10/28 06:41:18;;;;;;;;;;;8.00;67.90;;;;;;6275045;22;20269;-66
2021/10/28 06:43:44;;;;;;;;;;;8.00;67.90;;;;;;6275502;22;19910;-66
2021/10/28 06:46:09;;;;;;;;;;;8.00;67.90;;;;;;6275588;22;19935;-65
2021/10/28 06:48:35;;;;;;;;;;;8.10;68.00;;;;;;6275478;22;19910;-64
2021/10/28 06:51:01;;;;;;;;;;;8.10;68.00;;;;;;6275196;22;19903;-65
2021/10/28 06:53:42;;;;;;;;;;;8.10;68.10;;;;;;6273696;22;19907;-65
2021/10/28 07:04:12;;;;;;;;;;;8.30;68.40;;;;;;6275985;22;19905;-65
2021/10/28 07:06:39;;;;;;;;;;;8.40;68.40;;;;;;6277460;22;19969;-66
2021/10/28 07:09:17;;;;;;;;;;;8.50;68.40;;;;;;6277278;22;19952;-65
2021/10/28 07:11:47;;;;;;;;;;;8.50;68.30;;;;;;6277283;22;19978;-65
2021/10/28 07:14:12;;;;;;;;;;;8.50;68.30;;;;;;6277024;22;19938;-66
2021/10/28 07:16:46;;;;;;;;;;;8.60;68.30;;;;;;6276828;22;19899;-65
2021/10/28 07:19:35;;;;;;;;;;;8.60;68.20;;;;;;6277184;22;19905;-65
2021/10/28 07:27:37;;;;;;;;;;;8.80;68.30;;;;;;6288597;22;19922;-65
2021/10/28 07:35:31;;;;;;;;;;;9.00;68.20;;;;;;6288334;22;20238;-65
2021/10/28 08:15:42;;;;;;;;;;;10.60;67.20;;;;;;6277601;22;20234;-65
2021/10/28 08:23:39;;;;;;;;;;;11.00;66.50;;;;;;6288320;22;19909;-65
2021/10/28 08:28:52;;;;;;;;;;;11.10;66.30;;;;;;6277718;22;19967;-65
2021/10/28 08:31:19;;;;;;;;;;;11.30;66.20;;;;;;6277475;22;20333;-65
2021/10/28 08:33:45;;;;;;;;;;;11.30;65.90;;;;;;6277443;22;19974;-66
2021/10/28 08:36:12;;;;;;;;;;;11.40;65.50;;;;;;6277673;22;19922;-65
2021/10/28 08:38:39;;;;;;;;;;;11.50;65.50;;;;;;6277817;22;19945;-65
2021/10/28 08:41:08;;;;;;;;;;;11.70;65.60;;;;;;6277695;22;19899;-65
2021/10/28 08:43:36;;;;;;;;;;;11.80;65.60;;;;;;6277389;22;19907;-65
2021/10/28 08:46:03;;;;;;;;;;;11.90;65.40;;;;;;6275959;22;19906;-65
2021/10/28 08:48:31;;;;;;;;;;;12.00;65.20;;;;;;6277453;22;20323;-65
2021/10/28 08:56:38;;;;;;;;;;;12.20;64.40;;;;;;6277478;22;19926;-65
2021/10/28 09:29:56;;;;;;;;;;;13.00;62.60;;;;;;6277359;22;20241;-66
2021/10/28 09:32:05;;;;;;;;;;;13.00;62.50;;;;;;6265848;22;19903;-67
2021/10/28 09:35:22;;;;;;;;;;;13.10;62.20;;;;;;6276982;22;19903;-69
2021/10/28 09:45:58;;;;;;;;;;;13.30;61.90;;;;;;6276940;22;19905;-67
2021/10/28 09:51:18;;;;;;;;;;;13.30;61.50;;;;;;6252690;22;19903;-66
2021/10/28 09:59:20;;;;;;;;;;;13.40;61.10;;;;;;6276798;22;19906;-67
2021/10/28 10:01:47;;;;;;;;;;;13.50;61.10;;;;;;6276665;22;19899;-66
2021/10/28 10:04:14;;;;;;;;;;;13.50;61.20;;;;;;6276729;22;20319;-66
2021/10/28 10:06:42;;;;;;;;;;;13.60;61.30;;;;;;6276764;22;19900;-67
2021/10/28 10:09:08;;;;;;;;;;;13.70;61.40;;;;;;6276613;22;19982;-67
2021/10/28 10:11:34;;;;;;;;;;;13.70;61.30;;;;;;6276732;22;19899;-66
2021/10/28 10:14:00;;;;;;;;;;;13.80;61.20;;;;;;6276359;22;19915;-66
2021/10/28 10:16:28;;;;;;;;;;;13.90;60.90;;;;;;6276718;22;19970;-67
2021/10/28 10:18:54;;;;;;;;;;;14.00;60.80;;;;;;6276617;22;19899;-68
2021/10/28 10:21:37;;;;;;;;;;;14.00;60.60;;;;;;6276438;22;20011;-66
2021/10/28 10:24:18;;;;;;;;;;;14.10;60.30;;;;;;6277048;22;19903;-67
2021/10/28 12:28:17;;;;;;;;;;;14.00;58.40;;;;;;6221558;22;19922;-65
2021/10/28 12:45:01;;;;;;;;;;;14.10;58.20;;;;;;6277215;22;19951;-67
2021/10/28 12:55:10;;;;;;;;;;;14.20;58.20;;;;;;6276840;22;20231;-67
2021/10/28 14:29:49;;;;;;;;;;;14.20;57.80;;;;;;6276295;22;19906;-68
2021/10/28 14:35:20;;;;;;;;;;;14.10;57.90;;;;;;6276304;22;20277;-65
2021/10/28 15:00:05;;;;;;;;;;;13.60;58.50;;;;;;6275939;22;19991;-66
2021/10/28 15:29:15;;;;;;;;;;;13.40;59.30;;;;;;6277836;22;19906;-65
2021/10/28 15:55:53;;;;;;;;;;;12.80;59.90;;;;;;6278134;22;19909;-66
2021/10/28 16:22:56;;;;;;;;;;;12.20;61.50;;;;;;6277528;22;19929;-66
2021/10/28 16:25:22;;;;;;;;;;;12.20;61.60;;;;;;6277398;22;20331;-66
2021/10/28 16:27:48;;;;;;;;;;;12.10;61.50;;;;;;6277586;22;19935;-66
2021/10/28 16:30:14;;;;;;;;;;;12.10;61.60;;;;;;6277535;22;20364;-65
2021/10/28 16:32:39;;;;;;;;;;;12.00;61.70;;;;;;6277434;22;19899;-67
2021/10/28 16:35:05;;;;;;;;;;;12.00;61.90;;;;;;6277424;22;20307;-66
2021/10/28 16:37:34;;;;;;;;;;;12.00;61.90;;;;;;6277506;22;19910;-67
2021/10/28 16:40:00;;;;;;;;;;;12.00;61.80;;;;;;6277355;22;19895;-65
2021/10/28 16:42:26;;;;;;;;;;;12.00;61.70;;;;;;6277539;22;19949;-67
2021/10/28 16:44:51;;;;;;;;;;;11.90;61.70;;;;;;6277479;22;20227;-68
2021/10/28 16:47:17;;;;;;;;;;;11.90;61.70;;;;;;6277531;22;19978;-66
2021/10/28 16:49:42;;;;;;;;;;;11.90;61.70;;;;;;6277355;22;20285;-67
2021/10/28 16:52:08;;;;;;;;;;;11.80;61.60;;;;;;6277401;22;19896;-67
2021/10/28 16:54:34;;;;;;;;;;;11.80;61.70;;;;;;6277334;22;19926;-66
2021/10/28 16:57:00;;;;;;;;;;;11.70;61.70;;;;;;6277172;22;19960;-66
2021/10/28 16:59:26;;;;;;;;;;;11.70;61.70;;;;;;6277196;22;19905;-66
2021/10/28 17:01:53;;;;;;;;;;;11.60;61.70;;;;;;6277133;22;19927;-68
2021/10/28 17:04:19;;;;;;;;;;;11.60;61.70;;;;;;6277320;22;20283;-66
2021/10/28 17:06:44;;;;;;;;;;;11.60;61.90;;;;;;6277056;22;19905;-68
2021/10/28 17:09:10;;;;;;;;;;;11.60;61.90;;;;;;6277269;22;19899;-66
2021/10/28 17:11:37;;;;;;;;;;;11.60;62.10;;;;;;6277128;22;19899;-67
2021/10/28 17:14:03;;;;;;;;;;;11.50;62.00;;;;;;6276725;22;19942;-68
2021/10/28 17:16:30;;;;;;;;;;;11.50;62.00;;;;;;6276955;22;19906;-68
2021/10/28 17:18:55;;;;;;;;;;;11.50;62.00;;;;;;6276931;22;20345;-67
2021/10/28 17:21:21;;;;;;;;;;;11.40;61.90;;;;;;6277043;22;19899;-67
2021/10/28 17:23:57;;;;;;;;;;;11.40;61.90;;;;;;6276842;22;19937;-66
2021/10/28 17:26:23;;;;;;;;;;;11.40;62.00;;;;;;6275326;22;20330;-67
2021/10/28 17:28:49;;;;;;;;;;;11.30;61.90;;;;;;6275336;22;19966;-67
2021/10/28 17:31:14;;;;;;;;;;;11.30;62.00;;;;;;6276849;22;19899;-68
2021/10/28 17:33:40;;;;;;;;;;;11.20;62.00;;;;;;6276732;22;19899;-67
2021/10/28 17:36:06;;;;;;;;;;;11.20;62.10;;;;;;6276307;22;19904;-68
2021/10/28 17:38:32;;;;;;;;;;;11.20;62.10;;;;;;6276623;22;19997;-68
2021/10/28 17:40:58;;;;;;;;;;;11.20;62.10;;;;;;6276728;22;19904;-66
2021/10/28 17:43:28;;;;;;;;;;;11.10;62.00;;;;;;6276673;22;19907;-66
2021/10/28 17:45:57;;;;;;;;;;;11.10;62.10;;;;;;6275270;22;19906;-66
2021/10/28 17:48:23;;;;;;;;;;;11.00;62.10;;;;;;6276442;22;19900;-66
2021/10/28 17:50:48;;;;;;;;;;;11.00;62.30;;;;;;6276778;22;19899;-68
2021/10/28 17:53:14;;;;;;;;;;;11.00;62.50;;;;;;6276529;22;19899;-68
2021/10/28 17:55:40;;;;;;;;;;;11.00;62.60;;;;;;6276562;22;20204;-67
2021/10/28 17:58:06;;;;;;;;;;;10.90;62.70;;;;;;6276595;22;19904;-67
2021/10/28 18:00:32;;;;;;;;;;;10.90;62.80;;;;;;6276611;22;19903;-66
2021/10/28 18:02:58;;;;;;;;;;;10.90;62.70;;;;;;6276549;22;19899;-67
2021/10/28 18:05:25;;;;;;;;;;;10.80;62.70;;;;;;6276500;22;19899;-67
2021/10/28 18:07:51;;;;;;;;;;;10.80;62.70;;;;;;6276464;22;20389;-67
2021/10/28 18:10:16;;;;;;;;;;;10.80;62.70;;;;;;6276524;22;19926;-66
2021/10/28 18:12:42;;;;;;;;;;;10.80;62.80;;;;;;6276183;22;19974;-66
2021/10/28 18:15:08;;;;;;;;;;;10.70;62.90;;;;;;6276389;22;20283;-67
2021/10/28 18:17:34;;;;;;;;;;;10.70;62.80;;;;;;6276504;22;19977;-67
2021/10/28 18:20:02;;;;;;;;;;;10.70;62.90;;;;;;6276544;22;19896;-66
2021/10/28 18:22:28;;;;;;;;;;;10.60;62.80;;;;;;6276364;22;19900;-68
2021/10/28 18:24:54;;;;;;;;;;;10.60;62.90;;;;;;6276425;22;20306;-67
2021/10/28 18:27:19;;;;;;;;;;;10.60;63.20;;;;;;6276365;22;19952;-67
2021/10/28 18:29:45;;;;;;;;;;;10.60;63.50;;;;;;6276378;22;19974;-67
2021/10/28 18:32:11;;;;;;;;;;;10.50;63.40;;;;;;6276324;22;19899;-66
2021/10/28 18:34:37;;;;;;;;;;;10.50;63.40;;;;;;6276258;22;20636;-67
2021/10/28 18:37:03;;;;;;;;;;;10.50;63.30;;;;;;6276311;22;19906;-67
2021/10/28 18:39:29;;;;;;;;;;;10.50;63.30;;;;;;6276254;22;19922;-68
2021/10/28 18:41:57;;;;;;;;;;;10.40;63.30;;;;;;6276337;22;20310;-66
2021/10/28 18:44:23;;;;;;;;;;;10.40;63.30;;;;;;6276352;22;19899;-67
2021/10/28 18:46:50;;;;;;;;;;;10.40;63.40;;;;;;6276319;22;19994;-67
2021/10/28 18:49:17;;;;;;;;;;;10.40;63.30;;;;;;6276364;22;19930;-66
2021/10/28 18:51:46;;;;;;;;;;;10.30;63.20;;;;;;6276153;22;19905;-68
2021/10/28 18:54:12;;;;;;;;;;;10.30;64.00;;;;;;6276234;22;19907;-67
2021/10/28 18:56:37;;;;;;;;;;;10.30;63.40;;;;;;6274700;22;19952;-67
2021/10/28 18:59:04;;;;;;;;;;;10.30;63.50;;;;;;6276387;22;19906;-68
2021/10/28 19:01:31;;;;;;;;;;;10.20;63.50;;;;;;6278203;22;19927;-67
2021/10/28 19:03:57;;;;;;;;;;;10.20;63.50;;;;;;6278188;22;19949;-67
2021/10/28 19:06:23;;;;;;;;;;;10.20;63.60;;;;;;6278413;22;20246;-66
2021/10/28 19:08:49;;;;;;;;;;;10.20;63.60;;;;;;6278324;22;19899;-66
2021/10/28 19:11:15;;;;;;;;;;;10.10;64.60;;;;;;6278230;22;19899;-68
2021/10/28 19:13:42;;;;;;;;;;;10.10;64.10;;;;;;6276369;22;19918;-66
2021/10/28 19:16:09;;;;;;;;;;;10.10;64.30;;;;;;6278177;22;19911;-67
2021/10/28 19:18:34;;;;;;;;;;;10.10;64.60;;;;;;6278296;22;19903;-65
2021/10/28 19:21:03;;;;;;;;;;;10.00;64.70;;;;;;6278049;22;19900;-67
2021/10/28 19:23:29;;;;;;;;;;;10.00;64.80;;;;;;6278042;22;19899;-66
2021/10/28 19:25:54;;;;;;;;;;;10.00;64.80;;;;;;6278163;22;19965;-67
2021/10/28 19:28:20;;;;;;;;;;;10.00;64.80;;;;;;6278154;22;19974;-64
2021/10/28 19:31:00;;;;;;;;;;;10.00;65.00;;;;;;6277951;22;20370;-65
2021/10/28 19:34:00;;;;;;;;;;;10.00;65.00;;;;;;6278106;22;19949;-67
2021/10/28 19:36:29;;;;;;;;;;;10.00;65.10;;;;;;6274708;22;19903;-67
2021/10/28 19:47:13;;;;;;;;;;;10.00;65.50;;;;;;6214875;23;19951;-65
2021/10/28 19:49:40;;;;;;;;;;;10.00;65.40;;;;;;6266438;22;19915;-64
2021/10/28 19:52:07;;;;;;;;;;;10.00;65.30;;;;;;6278086;22;19949;-64
2021/10/28 19:54:33;;;;;;;;;;;10.00;65.30;;;;;;6277740;22;19977;-64
2021/10/28 19:56:59;;;;;;;;;;;10.00;65.30;;;;;;6277848;22;19900;-66
2021/10/28 19:59:28;;;;;;;;;;;10.00;65.40;;;;;;6276189;22;19899;-65
2021/10/28 20:02:01;;;;;;;;;;;9.90;65.30;;;;;;6277744;22;19906;-64
2021/10/28 20:04:35;;;;;;;;;;;10.00;65.40;;;;;;6277670;22;19993;-65
2021/10/28 20:22:44;;;;;;;;;;;10.00;66.10;;;;;;6277838;22;19899;-67
2021/10/28 20:25:14;;;;;;;;;;;10.00;66.20;;;;;;6277636;22;20273;-65
2021/10/28 20:27:41;;;;;;;;;;;10.10;66.30;;;;;;6277532;22;19968;-68
2021/10/28 20:30:07;;;;;;;;;;;10.10;66.50;;;;;;6277559;22;19927;-67
2021/10/28 20:32:33;;;;;;;;;;;10.10;66.40;;;;;;6277407;22;20303;-65
2021/10/28 20:37:34;;;;;;;;;;;10.20;66.40;;;;;;6278013;22;19906;-65
2021/10/28 20:40:00;;;;;;;;;;;10.20;66.40;;;;;;6275990;22;19923;-65
2021/10/28 20:42:36;;;;;;;;;;;10.20;66.40;;;;;;6277511;22;19899;-68
2021/10/28 20:45:04;;;;;;;;;;;10.30;66.50;;;;;;6277484;22;20313;-66
2021/10/28 20:47:30;;;;;;;;;;;10.30;66.40;;;;;;6275675;22;19922;-67
2021/10/28 20:49:59;;;;;;;;;;;10.40;66.50;;;;;;6277148;22;20303;-66
2021/10/28 20:52:25;;;;;;;;;;;10.40;66.40;;;;;;6275549;22;19978;-66
2021/10/28 20:54:51;;;;;;;;;;;10.40;66.30;;;;;;6277212;22;20325;-68
2021/10/28 20:57:17;;;;;;;;;;;10.40;66.20;;;;;;6277300;22;19973;-66
2021/10/28 20:59:43;;;;;;;;;;;10.50;66.30;;;;;;6277208;22;19899;-67
2021/10/28 21:02:10;;;;;;;;;;;10.50;66.30;;;;;;6277223;22;19949;-66
2021/10/28 21:04:35;;;;;;;;;;;10.50;66.20;;;;;;6275493;22;19944;-68
2021/10/28 21:07:01;;;;;;;;;;;10.60;66.20;;;;;;6277168;22;19937;-67
2021/10/28 21:09:26;;;;;;;;;;;10.60;66.10;;;;;;6277035;22;19899;-67
2021/10/28 21:11:52;;;;;;;;;;;10.60;66.10;;;;;;6275524;22;19899;-67
2021/10/28 21:14:18;;;;;;;;;;;10.70;66.10;;;;;;6276852;22;19918;-67
2021/10/28 21:16:44;;;;;;;;;;;10.70;66.00;;;;;;6277068;22;19957;-67
2021/10/28 21:19:09;;;;;;;;;;;10.70;66.00;;;;;;6276886;22;19899;-67
2021/10/28 21:21:38;;;;;;;;;;;10.70;65.90;;;;;;6276732;22;19899;-66
2021/10/28 21:24:05;;;;;;;;;;;10.70;65.90;;;;;;6276529;22;19921;-66
2021/10/28 21:26:31;;;;;;;;;;;10.70;65.80;;;;;;6275191;22;19911;-67
2021/10/28 21:28:57;;;;;;;;;;;10.70;65.80;;;;;;6276930;22;20227;-67
2021/10/28 21:31:23;;;;;;;;;;;10.80;65.90;;;;;;6276867;22;19899;-67
2021/10/28 21:33:48;;;;;;;;;;;10.70;65.80;;;;;;6276778;22;20381;-66
2021/10/28 21:36:14;;;;;;;;;;;10.80;65.80;;;;;;6276882;22;19910;-66
2021/10/28 21:38:40;;;;;;;;;;;10.80;65.80;;;;;;6276913;22;20228;-67
2021/10/28 21:41:05;;;;;;;;;;;10.80;65.60;;;;;;6276808;22;19988;-66
2021/10/28 21:43:32;;;;;;;;;;;10.80;65.50;;;;;;6276639;22;19933;-67
2021/10/28 21:45:58;;;;;;;;;;;10.70;65.40;;;;;;6276818;22;19905;-67
2021/10/28 21:48:23;;;;;;;;;;;10.70;65.30;;;;;;6276854;22;19930;-67
2021/10/28 21:50:56;;;;;;;;;;;10.70;65.20;;;;;;6276757;22;19978;-67
2021/10/28 21:53:22;;;;;;;;;;;10.70;65.10;;;;;;6276875;22;19976;-67
2021/10/28 22:07:10;;;;;;;;;;;10.50;65.00;;;;;;6276561;22;19906;-67
2021/10/28 22:25:37;;;;;;;;;;;10.40;65.10;;;;;;6276520;22;19906;-67
2021/10/28 22:28:03;;;;;;;;;;;10.40;65.10;;;;;;6276362;22;20231;-66
2021/10/28 22:30:29;;;;;;;;;;;10.40;65.00;;;;;;6276327;22;19903;-67
2021/10/28 22:32:58;;;;;;;;;;;10.40;65.10;;;;;;6276343;22;19899;-66
2021/10/28 22:35:41;;;;;;;;;;;10.30;65.00;;;;;;6276152;22;19903;-67
2021/10/28 22:38:09;;;;;;;;;;;10.30;65.00;;;;;;6276456;22;19956;-66
2021/10/28 22:40:36;;;;;;;;;;;10.30;65.10;;;;;;6276419;22;19903;-67
2021/10/28 22:43:09;;;;;;;;;;;10.30;65.10;;;;;;6276420;22;19899;-67
2021/10/28 22:45:35;;;;;;;;;;;10.30;65.10;;;;;;6276392;22;20017;-67
2021/10/28 22:48:02;;;;;;;;;;;10.40;65.20;;;;;;6276324;22;19975;-67
2021/10/28 22:50:27;;;;;;;;;;;10.30;65.10;;;;;;6274679;22;19930;-67
2021/10/28 22:53:00;;;;;;;;;;;10.40;65.10;;;;;;6276106;22;19906;-66
2021/10/28 22:55:29;;;;;;;;;;;10.40;65.10;;;;;;6276139;22;20005;-67
2021/10/28 23:14:41;;;;;;;;;;;10.40;65.00;;;;;;6276272;22;20324;-67
2021/10/28 23:22:22;;;;;;;;;;;10.30;64.80;;;;;;6276169;22;19951;-67
2021/10/28 23:24:48;;;;;;;;;;;10.30;64.90;;;;;;6276023;22;20303;-68
2021/10/28 23:27:13;;;;;;;;;;;10.30;64.80;;;;;;6276098;22;19906;-66
2021/10/28 23:29:39;;;;;;;;;;;10.30;64.90;;;;;;6275954;22;20256;-67
2021/10/28 23:32:05;;;;;;;;;;;10.30;64.90;;;;;;6275933;22;19906;-67
2021/10/28 23:34:31;;;;;;;;;;;10.30;64.80;;;;;;6275962;22;19907;-67
2021/10/28 23:36:56;;;;;;;;;;;10.30;64.80;;;;;;6275950;22;19956;-67
2021/10/28 23:39:22;;;;;;;;;;;10.30;64.80;;;;;;6275915;22;19952;-66
2021/10/28 23:41:47;;;;;;;;;;;10.30;64.80;;;;;;6275915;22;19899;-67
2021/10/28 23:44:13;;;;;;;;;;;10.30;64.70;;;;;;6275916;22;19900;-68
2021/10/28 23:46:39;;;;;;;;;;;10.30;64.70;;;;;;6277110;22;19906;-66
2021/10/28 23:49:04;;;;;;;;;;;10.30;64.70;;;;;;6277973;22;19906;-65
2021/10/28 23:51:31;;;;;;;;;;;10.20;64.60;;;;;;6277796;22;19903;-66
2021/10/28 23:53:56;;;;;;;;;;;10.20;64.60;;;;;;6277979;22;19899;-67
2021/10/28 23:56:22;;;;;;;;;;;10.20;64.60;;;;;;6277803;22;19911;-67
2021/10/28 23:58:48;;;;;;;;;;;10.10;64.50;;;;;;6277920;22;19906;-66
